Latest Weather Observations for Lombadina

IDW60801

Issued at 8:33 am WST Monday 21 August 2017 (issued every 30 minutes, with the page automatically refreshed every 10 minutes)

About weather observations | Map of weather stations | Latest weather observations for WA | Other Formats
Station Details ID: 503016 Name: LOMBADINA AIRSTRIP Lat: -16.52 Lon: 122.92 Height: 42.0 m
Data from the previous 72 hours. | See also: Recent months for locations in Western Australia
Date/Time
WST
Temp
°C
App
Temp
°C
Dew
Point
°C
Rel
Hum
%
Delta-T
°C
Wind Press
QNH
hPa
Press
MSL
hPa
Rain since
9am
mm
Dir  Spd
km/h
Gust
km/h
Spd
kts
Gust
kts
21/08:30am 27.2 24.5 10.4 35 9.4 SE 15 24 8 13 1013.8 1013.6 0.0
21/08:00am 26.6 25.0 11.5 39 8.6 ESE 11 22 6 12 1013.6 1013.4 0.0
21/07:30am 25.3 24.2 11.8 43 7.7 SE 9 19 5 10 1013.5 1013.3 0.0
21/07:00am 24.1 23.0 11.8 46 7.0 SE 9 19 5 10 1013.3 1013.1 0.0
21/06:30am 23.1 22.5 12.4 51 6.1 ESE 7 11 4 6 1013.2 1013.0 0.0
21/06:00am 23.1 22.5 12.4 51 6.1 ESE 7 13 4 7 1012.9 1012.7 0.0
21/05:30am 23.5 22.5 12.2 49 6.4 ESE 9 13 5 7 1012.5 1012.3 0.0
21/05:00am 23.7 23.0 12.0 48 6.6 SE 7 13 4 7 1012.2 1012.0 0.0
21/04:30am 24.3 23.1 11.6 45 7.2 SE 9 13 5 7 1011.9 1011.7 0.0
21/04:00am 24.7 23.5 11.6 44 7.4 SE 9 15 5 8 1011.7 1011.5 0.0
21/03:30am 24.3 23.7 12.3 47 6.9 SE 7 13 4 7 1011.5 1011.3 0.0
21/03:00am 24.8 24.5 12.7 47 7.0 SE 6 13 3 7 1011.6 1011.4 0.0
21/02:30am 25.2 24.8 13.1 47 7.1 S 7 17 4 9 1011.3 1011.1 0.0
21/02:00am 23.4 23.9 14.9 59 5.1 S 6 9 3 5 1011.1 1010.9 0.0
21/01:30am 21.4 22.4 16.4 73 3.0 SSW 6 7 3 4 1011.2 1011.0 0.0
21/01:00am 22.0 23.1 16.7 72 3.2 SSW 6 7 3 4 1011.4 1011.2 0.0
21/12:30am 22.7 23.8 16.7 69 3.7 SW 6 9 3 5 1011.6 1011.4 0.0
21/12:00am 23.5 24.6 16.5 65 4.3 SW 6 9 3 5 1011.8 1011.6 0.0
 
Date/Time
WST
Temp
°C
App
Temp
°C
Dew
Point
°C
Rel
Hum
%
Delta-T
°C
Wind Press
QNH
hPa
Press
MSL
hPa
Rain since
9am
mm
Dir  Spd
km/h
Gust
km/h
Spd
kts
Gust
kts
20/11:30pm 24.3 25.2 16.6 62 4.7 SW 7 11 4 6 1012.1 1011.9 0.0
20/11:00pm 24.1 25.6 18.1 69 3.8 SW 7 13 4 7 1012.2 1012.0 0.0
20/10:30pm 23.3 25.7 20.1 82 2.1 SW 7 13 4 7 1012.3 1012.1 0.0
20/10:00pm 23.3 25.9 21.2 88 1.4 SW 9 15 5 8 1012.3 1012.1 0.0
20/09:30pm 22.9 26.3 21.7 93 0.8 WSW 6 9 3 5 1012.3 1012.1 0.0
20/09:00pm 23.2 26.7 21.8 92 0.9 SW 6 9 3 5 1012.5 1012.3 0.0
20/08:30pm 23.4 27.1 22.2 93 0.8 WSW 6 11 3 6 1012.6 1012.4 0.0
20/08:00pm 23.6 27.3 22.2 92 0.9 W 6 7 3 4 1012.8 1012.6 0.0
20/07:30pm 23.7 27.7 22.0 90 1.1 W 4 7 2 4 1012.6 1012.4 0.0
20/07:00pm 24.0 27.7 22.3 90 1.1 W 6 7 3 4 1012.5 1012.3 0.0
20/06:30pm 24.4 28.4 22.1 87 1.5 WNW 4 11 2 6 1012.2 1012.0 0.0
20/06:00pm 25.0 28.5 21.9 83 2.1 WNW 6 9 3 5 1012.1 1011.9 0.0
20/05:30pm 26.0 29.4 21.7 77 2.9 WNW 6 11 3 6 1011.9 1011.7 0.0
20/05:00pm 27.0 29.7 21.3 71 3.8 WNW 9 15 5 8 1011.9 1011.7 0.0
20/04:30pm 27.8 30.3 21.1 67 4.5 W 9 19 5 10 1011.8 1011.6 0.0
20/04:00pm 28.4 29.7 19.3 57 5.9 WNW 11 19 6 10 1011.8 1011.6 0.0
20/03:30pm 28.5 29.2 18.9 56 6.2 NW 13 17 7 9 1011.5 1011.3 0.0
20/03:00pm 29.1 30.7 20.0 58 6.0 WNW 11 19 6 10 1011.6 1011.4 0.0
20/02:30pm 28.9 29.3 18.1 52 6.9 WNW 13 19 7 10 1011.7 1011.5 0.0
20/02:00pm 28.7 30.1 19.6 58 5.9 WNW 11 17 6 9 1011.9 1011.7 0.0
20/01:30pm 29.9 31.5 19.9 55 6.6 NW 11 17 6 9 1012.2 1012.0 0.0
20/01:00pm 29.6 31.1 20.5 58 6.0 NW 13 20 7 11 1012.7 1012.5 0.0
20/12:30pm 30.2 31.6 18.6 49 7.5 NW 9 15 5 8 1013.2 1013.0 0.0
20/12:00pm 30.7 31.1 16.3 42 9.0 ENE 9 17 5 9 1013.8 1013.6 0.0
20/11:30am 29.6 29.3 16.4 45 8.2 ENE 13 20 7 11 1014.2 1014.0 0.0
20/11:00am 29.7 29.8 16.5 45 8.3 E 11 19 6 10 1014.6 1014.4 0.0
20/10:30am 30.6 30.7 15.5 40 9.3 ESE 9 19 5 10 1015.1 1014.9 0.0
20/10:00am 30.9 29.5 12.3 32 11.0 SE 11 19 6 10 1015.3 1015.1 0.0
20/09:30am 29.8 27.9 11.8 33 10.5 SSE 13 24 7 13 1015.6 1015.4 0.0
20/09:00am 28.3 26.5 12.2 37 9.4 S 13 22 7 12 1015.8 1015.6 0.0
20/08:30am 26.9 26.5 14.0 45 7.7 SSE 9 17 5 9 1015.7 1015.5 0.0
20/08:00am 25.3 25.7 15.3 54 6.0 S 7 15 4 8 1015.5 1015.3 0.0
20/07:30am 23.6 25.0 17.3 67 3.9 SSE 6 7 3 4 1015.4 1015.2 0.0
20/07:00am 21.6 23.9 18.6 83 1.9 S 4 6 2 3 1015.2 1015.0 0.0
20/06:30am 19.8 21.7 18.6 93 0.7 S 6 9 3 5 1015.1 1014.9 0.0
20/06:00am 19.1 21.3 18.3 95 0.5 SSE 4 6 2 3 1015.0 1014.8 0.0
20/05:30am 20.1 22.7 19.3 95 0.5 S 4 7 2 4 1014.5 1014.3 0.0
20/05:02am 19.2 21.1 18.5 96 0.4 S 6 7 3 4 1014.2 1014.0 0.0
20/05:00am 19.4 21.5 18.9 97 0.3 S 6 7 3 4 1014.2 1014.0 0.0
20/04:52am 19.5 21.9 18.8 96 0.4 SSW 4 7 2 4 1014.1 1013.9 0.0
20/04:50am 19.6 22.0 18.9 96 0.4 SSW 4 7 2 4 1014.1 1013.9 0.0
20/04:30am 18.9 20.7 18.4 97 0.3 SSW 6 9 3 5 1013.9 1013.7 0.0
20/04:00am 19.4 21.6 19.2 99 0.1 SSW 6 9 3 5 1013.8 1013.6 0.0
20/03:41am 18.8 21.1 18.5 98 0.2 SSW 4 7 2 4 1013.9 1013.7 0.0
20/03:30am 19.1 21.5 18.8 98 0.2 SSW 4 7 2 4 1013.9 1013.7 0.0
20/03:00am 18.7 21.2 18.2 97 0.3 SSW 2 4 1 2 1014.0 1013.8 0.0
20/02:30am 19.8 23.0 18.8 94 0.6 CALM 0 0 0 0 1014.0 1013.8 0.0
20/02:00am 21.6 24.8 19.7 89 1.2 WSW 2 7 1 4 1014.0 1013.8 0.0
20/01:30am 21.6 24.2 19.2 86 1.5 W 4 7 2 4 1014.1 1013.9 0.0
20/01:00am 21.9 24.2 19.5 86 1.5 WSW 6 11 3 6 1014.0 1013.8 0.0
20/12:30am 22.1 24.3 19.5 85 1.7 WSW 7 11 4 6 1014.0 1013.8 0.0
20/12:00am 22.2 24.2 19.2 83 1.9 WSW 7 9 4 5 1014.0 1013.8 0.0
 
Date/Time
WST
Temp
°C
App
Temp
°C
Dew
Point
°C
Rel
Hum
%
Delta-T
°C
Wind Press
QNH
hPa
Press
MSL
hPa
Rain since
9am
mm
Dir  Spd
km/h
Gust
km/h
Spd
kts
Gust
kts
19/11:30pm 22.6 24.3 18.6 78 2.5 SW 7 11 4 6 1014.1 1013.9 0.0
19/11:00pm 23.0 24.2 18.3 75 3.0 SW 9 17 5 9 1014.2 1014.0 0.0
19/10:30pm 23.3 24.8 18.8 76 2.9 WSW 9 15 5 8 1014.2 1014.0 0.0
19/10:00pm 23.0 25.6 20.5 86 1.6 WSW 7 13 4 7 1013.9 1013.7 0.0
19/09:30pm 23.0 26.0 20.9 88 1.4 WSW 6 9 3 5 1014.0 1013.8 0.0
19/09:00pm 23.4 26.2 20.9 86 1.6 WSW 7 17 4 9 1013.9 1013.7 0.0
19/08:30pm 23.6 26.6 21.3 87 1.5 WSW 7 13 4 7 1013.7 1013.5 0.0
19/08:00pm 23.7 26.7 20.8 84 1.9 W 6 11 3 6 1013.7 1013.5 0.0
19/07:30pm 24.0 26.8 20.9 83 2.0 W 7 11 4 6 1013.5 1013.3 0.0
19/07:00pm 24.1 27.0 20.6 81 2.3 W 6 11 3 6 1013.3 1013.1 0.0
19/06:30pm 24.5 27.1 20.0 76 2.9 W 6 13 3 7 1013.0 1012.8 0.0
19/06:00pm 25.1 27.5 19.7 72 3.5 W 6 11 3 6 1012.7 1012.5 0.0
19/05:30pm 26.0 28.0 19.2 66 4.4 W 7 17 4 9 1012.3 1012.1 0.0
19/05:00pm 27.3 28.8 18.9 60 5.4 WNW 9 17 5 9 1012.0 1011.8 0.0
19/04:30pm 27.8 28.5 18.8 58 5.8 NW 13 20 7 11 1011.8 1011.6 0.0
19/04:00pm 29.7 30.2 17.5 48 7.8 NW 11 17 6 9 1011.5 1011.3 0.0
19/03:30pm 30.4 31.1 17.1 44 8.4 WNW 9 17 5 9 1011.3 1011.1 0.0
19/03:00pm 30.3 31.1 18.1 48 7.8 WNW 11 15 6 8 1011.3 1011.1 0.0
19/02:30pm 30.1 30.5 18.2 49 7.6 NW 13 20 7 11 1011.5 1011.3 0.0
19/02:00pm 30.6 31.9 20.2 53 6.9 WNW 13 20 7 11 1011.7 1011.5 0.0
19/01:30pm 31.4 32.6 19.1 48 8.0 NW 11 19 6 10 1012.0 1011.8 0.0
19/01:00pm 31.1 32.4 20.1 52 7.3 NW 13 19 7 10 1012.4 1012.2 0.0
19/12:30pm 31.9 32.4 17.4 42 9.3 NW 11 17 6 9 1012.7 1012.5 0.0
19/12:00pm 33.1 33.4 16.9 38 10.3 NW 11 22 6 12 1013.2 1013.0 0.0
19/11:30am 34.2 31.9 7.3 19 14.9 SSW 9 20 5 11 1013.8 1013.6 0.0
19/11:00am 33.6 31.5 8.3 21 14.2 S 9 19 5 10 1014.2 1014.0 0.0
19/10:30am 32.1 30.0 8.4 23 13.2 SSE 9 19 5 10 1014.8 1014.6 0.0
19/10:00am 31.6 30.1 9.2 25 12.6 SSW 7 15 4 8 1015.4 1015.2 0.0
19/09:30am 30.3 28.8 9.2 27 11.8 S 7 13 4 7 1015.8 1015.6 0.0
19/09:00am 29.3 27.6 9.9 30 10.9 SW 9 17 5 9 1015.9 1015.7 0.0
19/08:30am 27.9 27.3 13.4 40 8.6 SW 9 15 5 8 1015.9 1015.7 0.0
19/08:00am 25.5 27.0 17.7 62 4.9 SSW 6 13 3 7 1015.6 1015.4 0.0
19/07:30am 23.3 26.4 21.0 87 1.5 SSW 6 9 3 5 1015.4 1015.2 0.0
19/07:00am 21.7 25.0 21.5 99 0.1 SSW 6 7 3 4 1015.1 1014.9 0.0
19/06:31am 20.9 23.9 20.9 100 0.0 SW 6 7 3 4 1014.8 1014.6 0.0
19/06:30am 20.9 23.9 20.9 100 0.0 SW 6 7 3 4 1014.8 1014.6 0.0
19/06:00am 20.7 23.6 20.7 100 0.0 SW 6 11 3 6 1014.6 1014.4 0.0
19/05:30am 21.0 24.1 21.0 100 0.0 SW 6 9 3 5 1014.4 1014.2 0.0
19/05:00am 21.1 24.6 21.1 100 0.0 SW 4 7 2 4 1014.1 1013.9 0.0
19/04:30am 20.7 24.0 20.7 100 0.0 WSW 4 6 2 3 1014.0 1013.8 0.0
19/04:00am 20.6 24.2 20.6 100 0.0 SW 2 4 1 2 1013.8 1013.6 0.0
19/03:30am 21.3 24.8 21.1 99 0.1 WSW 4 6 2 3 1013.8 1013.6 0.0
19/03:13am 21.8 25.6 21.6 99 0.1 W 4 6 2 3 1013.8 1013.6 0.0
19/03:00am 22.2 26.1 21.9 98 0.2 WSW 4 7 2 4 1013.7 1013.5 0.0
19/02:30am 22.4 26.1 22.2 99 0.1 W 6 13 3 7 1013.8 1013.6 0.0
19/02:00am 21.9 25.3 21.6 98 0.2 WSW 6 7 3 4 1013.8 1013.6 0.0
19/01:30am 21.8 25.0 21.3 97 0.3 W 6 9 3 5 1013.8 1013.6 0.0
19/01:00am 21.8 25.0 21.3 97 0.3 WSW 6 9 3 5 1013.7 1013.5 0.0
19/12:30am 22.1 25.2 21.4 96 0.5 WSW 7 11 4 6 1013.7 1013.5 0.0
19/12:00am 21.9 25.0 21.1 95 0.5 WSW 6 9 3 5 1013.7 1013.5 0.0
 
Date/Time
WST
Temp
°C
App
Temp
°C
Dew
Point
°C
Rel
Hum
%
Delta-T
°C
Wind Press
QNH
hPa
Press
MSL
hPa
Rain since
9am
mm
Dir  Spd
km/h
Gust
km/h
Spd
kts
Gust
kts
18/11:30pm 21.8 24.8 20.8 94 0.7 SW 6 11 3 6 1013.8 1013.6 0.0
18/11:00pm 22.1 24.8 20.7 92 0.9 WSW 7 13 4 7 1013.8 1013.6 0.0
18/10:30pm 22.2 24.9 20.7 91 1.0 WSW 7 13 4 7 1013.9 1013.7 0.0
18/10:00pm 22.3 25.2 21.1 93 0.8 SW 7 13 4 7 1014.0 1013.8 0.0
18/09:30pm 22.6 25.7 21.4 93 0.8 WSW 7 11 4 6 1014.1 1013.9 0.0
18/09:00pm 22.8 26.0 21.6 93 0.8 WSW 7 13 4 7 1014.1 1013.9 0.0
18/08:30pm 23.3 26.6 21.9 92 0.9 WSW 7 13 4 7 1014.0 1013.8 0.0
18/08:00pm 23.3 26.6 21.9 92 0.9 WSW 7 11 4 6 1013.6 1013.4 0.0
18/07:30pm 23.7 27.3 22.1 91 1.1 WSW 6 9 3 5 1013.5 1013.3 0.0
18/07:00pm 24.1 27.6 22.2 89 1.3 WSW 7 11 4 6 1013.0 1012.8 0.0
18/06:49pm 24.2 27.7 22.1 88 1.4 WSW 7 11 4 6 1012.8 1012.6 0.0
18/06:36pm 24.6 28.1 21.9 85 1.8 WSW 6 11 3 6 1012.5 1012.3 0.0
18/06:30pm 24.8 28.0 21.7 83 2.1 W 7 13 4 7 1012.4 1012.2 0.0
18/06:00pm 25.0 28.5 21.9 83 2.1 WNW 6 9 3 5 1012.0 1011.8 0.0
18/05:30pm 25.6 29.0 21.7 79 2.6 WNW 6 9 3 5 1011.8 1011.6 0.0
18/05:00pm 26.3 28.5 20.4 70 3.9 WNW 9 17 5 9 1011.6 1011.4 0.0
18/04:30pm 26.9 28.9 20.0 66 4.5 NW 9 15 5 8 1011.2 1011.0 0.0
18/04:00pm 27.4 29.2 19.5 62 5.1 WNW 9 17 5 9 1010.9 1010.7 0.0
18/03:30pm 30.7 32.5 18.8 49 7.7 NW 7 13 4 7 1010.5 1010.3 0.0
18/03:00pm 34.0 32.2 9.3 22 14.1 E 9 17 5 9 1010.4 1010.2 0.0
18/02:30pm 34.4 32.3 9.6 22 14.2 E 11 17 6 9 1010.5 1010.3 0.0
18/02:00pm 34.0 31.1 6.3 18 15.1 ESE 11 19 6 10 1010.8 1010.6 0.0
18/01:30pm 33.5 30.8 7.5 20 14.4 ESE 11 22 6 12 1011.1 1010.9 0.0
18/01:00pm 33.1 31.4 9.8 24 13.3 ESE 9 17 5 9 1011.4 1011.2 0.0
18/12:30pm 31.9 29.9 10.0 26 12.5 ESE 11 19 6 10 1011.9 1011.7 0.0
18/12:00pm 30.2 28.1 9.7 28 11.6 ESE 11 19 6 10 1012.5 1012.3 0.0
18/11:30am 29.9 27.6 10.5 30 11.1 ESE 13 20 7 11 1012.9 1012.7 0.0
18/11:00am 29.1 27.0 11.2 33 10.3 ESE 13 22 7 12 1013.4 1013.2 0.0
18/10:30am 27.8 24.8 10.5 34 9.8 ESE 17 26 9 14 1013.9 1013.7 0.0
18/10:00am 27.7 24.5 10.0 33 9.9 ESE 17 28 9 15 1014.2 1014.0 0.0
18/09:30am 27.3 23.9 9.2 32 10.0 ESE 17 28 9 15 1014.2 1014.0 0.0
18/09:00am 27.2 23.8 9.1 32 10.0 ESE 17 30 9 16 1014.0 1013.8 0.0

Other Formats:

Comma delimited format used in spreadsheet applications
http://www.bom.gov.au/fwo/IDW60801/IDW60801.99206.axf

JavaScript Object Notation format (JSON) in row-major order
http://www.bom.gov.au/fwo/IDW60801/IDW60801.99206.json